createdAt,value
2018-12-13T00:01:04.363Z,11.10
2018-12-13T00:04:08.382Z,10.57
2018-12-13T00:07:12.402Z,10.40
2018-12-13T00:10:16.411Z,9.30
2018-12-13T00:13:20.971Z,10.87
2018-12-13T00:16:25.175Z,10.97
2018-12-13T00:19:29.267Z,10.60
2018-12-13T00:22:33.279Z,9.83
2018-12-13T00:25:37.315Z,11.47
2018-12-13T00:28:41.372Z,11.10
2018-12-13T00:31:45.445Z,10.87
2018-12-13T00:34:49.494Z,10.50
2018-12-13T00:37:53.517Z,10.83
2018-12-13T00:40:57.577Z,9.53
2018-12-13T00:44:01.674Z,10.53
2018-12-13T00:47:05.762Z,11.03
2018-12-13T00:50:09.950Z,10.70
2018-12-13T00:53:13.979Z,12.00
2018-12-13T00:56:17.989Z,9.75
2018-12-13T00:59:22.005Z,10.47
2018-12-13T01:02:26.021Z,11.37
2018-12-13T01:05:30.051Z,9.57
2018-12-13T01:08:34.168Z,9.90
2018-12-13T01:11:38.185Z,11.40
2018-12-13T01:14:42.221Z,9.70
2018-12-13T01:17:46.255Z,9.87
2018-12-13T01:20:50.282Z,10.78
2018-12-13T01:23:54.318Z,9.77
2018-12-13T01:26:58.326Z,8.95
2018-12-13T01:30:02.361Z,10.28
2018-12-13T01:33:07.203Z,9.40
2018-12-13T01:36:11.253Z,10.00
2018-12-13T01:39:15.312Z,10.43
2018-12-13T01:42:19.322Z,9.05
2018-12-13T01:45:23.340Z,9.63
2018-12-13T01:48:27.362Z,10.60
2018-12-13T01:51:31.490Z,11.30
2018-12-13T01:54:35.525Z,11.18
2018-12-13T01:57:39.566Z,10.53
2018-12-13T02:00:43.597Z,11.27
2018-12-13T02:03:47.643Z,10.28
2018-12-13T02:06:51.673Z,10.33
2018-12-13T02:09:55.711Z,10.57
2018-12-13T02:12:59.728Z,10.00
2018-12-13T02:16:03.942Z,10.85
2018-12-13T02:19:07.975Z,10.05
2018-12-13T02:22:12.108Z,9.50
2018-12-13T02:25:16.135Z,10.38
2018-12-13T02:28:20.170Z,10.30
2018-12-13T02:31:24.196Z,10.78
2018-12-13T02:34:28.227Z,11.35
2018-12-13T02:37:32.275Z,11.25
2018-12-13T02:40:36.333Z,10.05
2018-12-13T02:43:40.358Z,12.10
2018-12-13T02:46:44.499Z,11.50
2018-12-13T02:49:48.534Z,11.03
2018-12-13T02:52:52.632Z,11.75
2018-12-13T02:55:56.683Z,11.90
2018-12-13T02:59:00.711Z,12.78
2018-12-13T03:02:04.911Z,11.25
2018-12-13T03:05:09.051Z,12.47
2018-12-13T03:08:13.078Z,11.85
2018-12-13T03:11:17.107Z,12.00
2018-12-13T03:14:21.188Z,11.83
2018-12-13T03:17:25.239Z,12.13
2018-12-13T03:20:29.275Z,12.93
2018-12-13T03:23:33.301Z,13.68
2018-12-13T03:26:37.533Z,11.75
2018-12-13T03:29:41.552Z,12.50
2018-12-13T03:32:45.612Z,13.43
2018-12-13T03:35:49.654Z,12.55
2018-12-13T03:38:53.692Z,12.88
2018-12-13T03:41:57.730Z,12.80
2018-12-13T03:45:01.756Z,11.95
2018-12-13T03:48:05.872Z,13.38
2018-12-13T03:51:09.955Z,13.03
2018-12-13T03:54:13.984Z,14.05
2018-12-13T03:57:18.010Z,14.85
2018-12-13T04:00:22.046Z,15.23
2018-12-13T04:03:26.086Z,13.85
2018-12-13T04:06:30.106Z,14.60
2018-12-13T04:09:34.131Z,15.80
2018-12-13T04:12:38.218Z,15.25
2018-12-13T04:15:42.280Z,13.85
2018-12-13T04:18:47.061Z,14.00
2018-12-13T04:21:51.343Z,14.05
2018-12-13T04:24:55.360Z,13.85
2018-12-13T04:27:59.386Z,15.23
2018-12-13T04:31:03.417Z,13.35
2018-12-13T04:34:07.442Z,13.75
2018-12-13T04:37:11.476Z,15.55
2018-12-13T04:40:15.569Z,14.75
2018-12-13T04:43:19.679Z,15.13
2018-12-13T04:46:23.707Z,12.70
2018-12-13T04:49:27.755Z,14.73
2018-12-13T04:52:31.898Z,13.58
2018-12-13T04:55:35.924Z,15.23
2018-12-13T04:58:40.037Z,13.72
2018-12-13T05:01:44.156Z,15.10
2018-12-13T05:04:48.208Z,13.65
2018-12-13T05:07:52.238Z,14.70
2018-12-13T05:10:56.442Z,14.18
2018-12-13T05:14:00.466Z,14.20
2018-12-13T05:17:04.520Z,15.55
2018-12-13T05:20:08.283Z,15.40
2018-12-13T05:23:12.362Z,15.20
2018-12-13T05:26:16.380Z,15.23
2018-12-13T05:29:20.422Z,16.45
2018-12-13T05:32:24.479Z,15.32
2018-12-13T05:35:28.750Z,13.38
2018-12-13T05:38:32.792Z,15.50
2018-12-13T05:41:36.821Z,15.15
2018-12-13T05:44:40.854Z,14.40
2018-12-13T05:47:45.002Z,14.90
2018-12-13T05:50:49.111Z,15.25
2018-12-13T05:53:54.007Z,15.75
2018-12-13T05:56:58.122Z,15.08
2018-12-13T06:00:02.170Z,15.05
2018-12-13T06:03:06.312Z,14.93
2018-12-13T06:06:10.462Z,15.68
2018-12-13T06:09:14.516Z,15.80
2018-12-13T06:12:18.562Z,15.65
2018-12-13T06:15:22.658Z,15.35
2018-12-13T06:18:26.828Z,15.35
2018-12-13T06:21:36.685Z,15.65
2018-12-13T06:24:37.011Z,14.95
2018-12-13T06:27:41.291Z,17.57
2018-12-13T06:30:45.395Z,17.07
2018-12-13T06:33:49.423Z,16.95
2018-12-13T06:36:53.459Z,17.00
2018-12-13T06:39:57.505Z,16.73
2018-12-13T06:43:01.539Z,16.67
2018-12-13T06:46:05.568Z,17.27
2018-12-13T06:49:09.610Z,17.87
2018-12-13T06:52:13.636Z,17.32
2018-12-13T06:55:17.672Z,18.95
2018-12-13T06:58:21.683Z,22.52
2018-12-13T07:01:25.720Z,20.62
2018-12-13T07:04:29.747Z,21.45
2018-12-13T07:07:33.759Z,22.48
2018-12-13T07:10:37.956Z,20.37
2018-12-13T07:13:42.051Z,18.50
2018-12-13T07:16:46.322Z,19.73
2018-12-13T07:19:50.464Z,19.92
2018-12-13T07:22:54.494Z,17.60
2018-12-13T07:25:58.521Z,17.67
2018-12-13T07:29:03.692Z,16.97
2018-12-13T07:32:07.711Z,16.80
2018-12-13T07:35:11.744Z,18.20
2018-12-13T07:38:15.767Z,17.42
2018-12-13T07:41:19.783Z,18.10
2018-12-13T07:44:23.829Z,17.82
2018-12-13T07:47:27.944Z,18.30
2018-12-13T07:50:31.963Z,17.90
2018-12-13T07:53:35.978Z,18.55
2018-12-13T07:56:40.135Z,18.20
2018-12-13T07:59:44.156Z,18.35
2018-12-13T08:02:48.267Z,19.37
2018-12-13T08:05:52.318Z,18.05
2018-12-13T08:08:56.347Z,19.25
2018-12-13T08:12:00.375Z,18.62
2018-12-13T08:15:05.002Z,17.60
2018-12-13T08:18:09.049Z,17.77
2018-12-13T08:21:13.096Z,17.45
2018-12-13T08:24:17.183Z,18.80
2018-12-13T08:27:21.218Z,19.35
2018-12-13T08:30:25.237Z,19.20
2018-12-13T08:33:29.271Z,18.20
2018-12-13T08:36:33.307Z,18.30
2018-12-13T08:39:37.323Z,18.55
2018-12-13T08:42:41.487Z,18.45
2018-12-13T08:45:45.495Z,18.10
2018-12-13T08:48:49.533Z,18.60
2018-12-13T08:51:53.726Z,19.73
2018-12-13T08:54:58.119Z,16.95
2018-12-13T08:58:02.247Z,19.20
2018-12-13T09:01:06.476Z,17.02
2018-12-13T09:04:10.741Z,15.95
2018-12-13T09:07:14.963Z,15.50
2018-12-13T09:10:18.983Z,16.50
2018-12-13T09:13:23.014Z,16.60
2018-12-13T09:16:31.459Z,17.17
2018-12-13T09:19:33.272Z,16.63
2018-12-13T09:22:37.426Z,18.10
2018-12-13T09:25:41.478Z,17.20
2018-12-13T09:28:45.501Z,15.00
2018-12-13T09:31:49.636Z,14.53
2018-12-13T09:34:53.645Z,15.63
2018-12-13T09:37:57.687Z,15.40
2018-12-13T09:41:01.752Z,15.90
2018-12-13T09:44:07.768Z,16.77
2018-12-13T09:47:11.785Z,14.90
2018-12-13T09:50:15.807Z,15.30
2018-12-13T09:53:19.895Z,12.73
2018-12-13T09:56:23.912Z,15.13
2018-12-13T09:59:27.965Z,14.23
2018-12-13T10:02:31.946Z,15.73
2018-12-13T10:05:35.975Z,14.60
2018-12-13T10:08:46.154Z,18.00
2018-12-13T10:11:46.013Z,13.40
2018-12-13T10:14:50.041Z,16.50
2018-12-13T10:17:54.059Z,15.37
2018-12-13T10:20:58.083Z,15.00
2018-12-13T10:24:02.107Z,14.20
2018-12-13T10:27:06.148Z,12.30
2018-12-13T10:30:10.285Z,13.90
2018-12-13T10:33:14.283Z,12.43
2018-12-13T10:36:18.395Z,12.90
2018-12-13T10:39:22.461Z,14.13
2018-12-13T10:42:26.460Z,13.97
2018-12-13T10:45:30.520Z,15.20
2018-12-13T10:48:34.548Z,15.10
2018-12-13T10:51:38.578Z,14.90
2018-12-13T10:54:42.616Z,13.70
2018-12-13T10:57:46.697Z,13.30
2018-12-13T11:01:56.000Z,14.17
2018-12-13T11:05:00.036Z,12.63
2018-12-13T11:08:04.084Z,12.77
2018-12-13T11:11:08.198Z,12.67
2018-12-13T11:14:12.214Z,12.90
2018-12-13T11:17:16.258Z,14.80
2018-12-13T11:20:20.407Z,12.03
2018-12-13T11:23:24.483Z,13.50
2018-12-13T11:26:28.493Z,11.93
2018-12-13T11:29:44.767Z,11.17
2018-12-13T11:32:48.787Z,13.20
2018-12-13T11:35:52.903Z,13.23
2018-12-13T11:38:56.915Z,13.20
2018-12-13T11:42:00.950Z,12.67
2018-12-13T11:45:05.250Z,12.13
2018-12-13T11:48:09.261Z,12.73
2018-12-13T11:51:13.360Z,13.37
2018-12-13T11:54:28.846Z,12.73
2018-12-13T11:57:32.980Z,13.70
2018-12-13T12:00:37.196Z,13.10
2018-12-13T12:03:41.223Z,12.90
2018-12-13T12:06:45.345Z,13.97
2018-12-13T12:09:49.359Z,13.40
2018-12-13T12:12:53.439Z,12.83
2018-12-13T12:15:57.461Z,14.23
2018-12-13T12:19:01.514Z,13.33
2018-12-13T12:22:05.523Z,22.13
2018-12-13T12:25:09.638Z,17.80
2018-12-13T12:28:13.662Z,66.17
2018-12-13T12:31:17.694Z,28.20
2018-12-13T12:34:21.736Z,32.77
2018-12-13T12:37:25.799Z,44.07
2018-12-13T12:40:29.830Z,29.00
2018-12-13T12:43:33.843Z,20.40
2018-12-13T12:46:37.865Z,22.90
2018-12-13T12:49:41.904Z,15.60
2018-12-13T12:52:45.935Z,14.00
2018-12-13T12:55:49.959Z,16.90
2018-12-13T12:58:53.990Z,21.13
2018-12-13T13:01:58.016Z,17.30
2018-12-13T13:05:02.037Z,16.33
2018-12-13T13:08:06.151Z,20.60
2018-12-13T13:11:10.175Z,18.20
2018-12-13T13:14:14.204Z,15.57
2018-12-13T13:20:32.973Z,15.93
2018-12-13T13:23:36.988Z,16.07
2018-12-13T13:26:41.016Z,15.60
2018-12-13T13:29:45.052Z,17.57
2018-12-13T13:32:49.075Z,15.70
2018-12-13T13:35:53.106Z,23.97
2018-12-13T13:38:57.127Z,15.73
2018-12-13T13:42:01.152Z,15.23
2018-12-13T13:45:05.709Z,15.90
2018-12-13T13:48:09.820Z,18.67
2018-12-13T13:51:13.859Z,15.70
2018-12-13T13:54:17.958Z,16.17
2018-12-13T13:57:22.058Z,15.50
2018-12-13T14:00:26.103Z,13.60
2018-12-13T14:03:30.151Z,14.20
2018-12-13T14:06:34.183Z,15.60
2018-12-13T14:09:38.295Z,16.30
2018-12-13T14:12:42.340Z,13.17
2018-12-13T14:15:46.360Z,15.57
2018-12-13T14:18:50.390Z,16.57
2018-12-13T14:21:54.539Z,18.90
2018-12-13T14:24:58.556Z,14.93
2018-12-13T14:28:02.672Z,15.73
2018-12-13T14:31:06.706Z,16.17
2018-12-13T14:34:10.727Z,17.07
2018-12-13T14:37:14.747Z,13.93
2018-12-13T14:40:18.762Z,14.43
2018-12-13T14:43:22.799Z,16.53
2018-12-13T14:46:26.818Z,14.97
2018-12-13T14:49:30.859Z,16.13
2018-12-13T14:52:34.896Z,15.80
2018-12-13T14:55:38.931Z,15.60
2018-12-13T14:58:42.952Z,17.60
2018-12-13T15:01:47.055Z,13.93
2018-12-13T15:04:51.759Z,14.90
2018-12-13T15:07:55.796Z,13.57
2018-12-13T15:10:59.815Z,16.50
2018-12-13T15:14:03.919Z,13.60
2018-12-13T15:17:07.944Z,16.30
2018-12-13T15:20:11.967Z,17.37
2018-12-13T15:23:16.052Z,16.33
2018-12-13T15:26:20.098Z,18.43
2018-12-13T15:29:24.150Z,15.43
2018-12-13T15:32:28.167Z,17.30
2018-12-13T15:35:32.189Z,14.70
2018-12-13T15:38:36.309Z,16.30
2018-12-13T15:41:40.297Z,15.23
2018-12-13T15:44:46.507Z,16.63
2018-12-13T15:47:50.528Z,19.23
2018-12-13T15:50:54.554Z,17.50
2018-12-13T15:53:58.580Z,14.90
2018-12-13T15:57:02.682Z,16.03
2018-12-13T16:00:08.070Z,15.20
2018-12-13T16:03:12.088Z,17.33
2018-12-13T16:06:16.108Z,17.67
2018-12-13T16:09:20.238Z,17.80
2018-12-13T16:12:24.263Z,17.80
2018-12-13T16:15:28.293Z,18.30
2018-12-13T16:18:32.319Z,19.13
2018-12-13T16:21:36.346Z,18.40
2018-12-13T16:24:40.374Z,24.80
2018-12-13T16:27:44.397Z,18.43
2018-12-13T16:30:48.798Z,18.93
2018-12-13T16:33:53.407Z,17.93
2018-12-13T16:36:57.468Z,16.07
2018-12-13T16:40:01.501Z,16.50
2018-12-13T16:43:05.525Z,17.73
2018-12-13T16:46:09.619Z,18.37
2018-12-13T16:49:13.635Z,18.03
2018-12-13T16:52:18.221Z,21.27
2018-12-13T16:55:22.426Z,16.30
2018-12-13T16:58:26.440Z,17.63
2018-12-13T17:01:30.562Z,17.13
2018-12-13T17:04:34.659Z,18.30
2018-12-13T17:07:38.683Z,17.93
2018-12-13T17:10:42.718Z,18.57
2018-12-13T17:13:47.023Z,18.40
2018-12-13T17:16:51.072Z,19.70
2018-12-13T17:19:55.153Z,16.80
2018-12-13T17:22:59.183Z,17.40
2018-12-13T17:26:03.313Z,17.70
2018-12-13T17:29:07.354Z,17.47
2018-12-13T17:32:11.419Z,17.10
2018-12-13T17:35:15.520Z,18.07
2018-12-13T17:38:19.646Z,16.43
2018-12-13T17:41:23.710Z,17.23
2018-12-13T17:44:27.731Z,17.67
2018-12-13T17:47:31.771Z,17.77
2018-12-13T17:50:35.807Z,17.27
2018-12-13T17:53:39.947Z,17.23
2018-12-13T17:56:44.131Z,14.50
2018-12-13T17:59:48.361Z,16.83
2018-12-13T18:02:52.474Z,15.37
2018-12-13T18:05:56.479Z,17.00
2018-12-13T18:09:00.509Z,19.70
2018-12-13T18:12:04.742Z,18.43
2018-12-13T18:15:08.964Z,17.43
2018-12-13T18:18:13.119Z,16.80
2018-12-13T18:21:17.143Z,18.80
2018-12-13T18:24:21.359Z,18.00
2018-12-13T18:27:25.552Z,19.23
2018-12-13T18:30:29.609Z,18.50
2018-12-13T18:33:33.702Z,18.57
2018-12-13T18:36:37.784Z,19.03
2018-12-13T18:39:41.799Z,18.37
2018-12-13T18:42:45.981Z,20.57
2018-12-13T18:45:50.351Z,25.20
2018-12-13T18:48:54.404Z,22.97
2018-12-13T18:51:58.443Z,22.63
2018-12-13T18:55:02.534Z,20.60
2018-12-13T18:58:06.547Z,19.70
2018-12-13T19:01:10.575Z,19.10
2018-12-13T19:04:14.602Z,17.83
2018-12-13T19:07:18.636Z,19.30
2018-12-13T19:10:22.736Z,18.40
2018-12-13T19:13:26.877Z,18.33
2018-12-13T19:16:30.908Z,17.90
2018-12-13T19:19:34.951Z,18.60
2018-12-13T19:22:38.982Z,19.50
2018-12-13T19:25:43.099Z,20.50
2018-12-13T19:28:47.174Z,18.90
2018-12-13T19:31:51.200Z,24.93
2018-12-13T19:35:00.277Z,19.20
2018-12-13T19:38:01.238Z,22.70
2018-12-13T19:41:05.266Z,19.37
2018-12-13T19:44:09.370Z,19.80
2018-12-13T19:47:13.401Z,19.80
2018-12-13T19:50:17.535Z,20.37
2018-12-13T19:53:21.887Z,20.30
2018-12-13T19:56:25.907Z,19.10
2018-12-13T19:59:29.923Z,21.40
2018-12-13T20:02:34.148Z,20.37
2018-12-13T20:05:38.327Z,20.00
2018-12-13T20:08:42.455Z,17.77
2018-12-13T20:11:46.480Z,18.10
2018-12-13T20:14:50.503Z,18.27
2018-12-13T20:17:54.526Z,21.17
2018-12-13T20:20:58.548Z,16.63
2018-12-13T20:24:02.579Z,18.20
2018-12-13T20:27:06.639Z,20.20
2018-12-13T20:30:10.871Z,17.73
2018-12-13T20:33:14.923Z,18.20
2018-12-13T20:36:19.067Z,17.67
2018-12-13T20:39:23.187Z,18.60
2018-12-13T20:42:27.303Z,20.37
2018-12-13T20:45:31.407Z,21.10
2018-12-13T20:48:35.436Z,19.83
2018-12-13T20:51:39.575Z,19.40
2018-12-13T20:54:43.630Z,17.23
2018-12-13T20:57:47.788Z,19.10
2018-12-13T21:00:51.900Z,17.97
2018-12-13T21:03:55.932Z,17.90
2018-12-13T21:07:05.957Z,18.00
2018-12-13T21:10:10.795Z,15.57
2018-12-13T21:13:14.829Z,17.83
2018-12-13T21:16:18.971Z,18.67
2018-12-13T21:19:23.083Z,17.73
2018-12-13T21:22:27.179Z,17.60
2018-12-13T21:25:31.207Z,17.23
2018-12-13T21:28:35.234Z,17.50
2018-12-13T21:31:39.344Z,17.30
2018-12-13T21:34:43.399Z,15.70
2018-12-13T21:37:47.512Z,17.60
2018-12-13T21:40:51.642Z,18.57
2018-12-13T21:43:56.445Z,16.43
2018-12-13T21:47:00.486Z,16.53
2018-12-13T21:50:04.812Z,16.10
2018-12-13T21:53:08.852Z,15.67
2018-12-13T21:56:12.966Z,15.80
2018-12-13T21:59:16.994Z,14.97
2018-12-13T22:02:21.010Z,15.47
2018-12-13T22:05:25.510Z,16.67
2018-12-13T22:08:29.699Z,17.70
2018-12-13T22:11:34.721Z,16.20
2018-12-13T22:14:38.738Z,17.10
2018-12-13T22:17:42.763Z,18.67
2018-12-13T22:20:46.794Z,16.17
2018-12-13T22:23:51.603Z,17.67
2018-12-13T22:26:57.066Z,17.83
2018-12-13T22:30:01.299Z,19.03
2018-12-13T22:33:05.508Z,17.57
2018-12-13T22:36:09.978Z,18.23
2018-12-13T22:39:14.845Z,17.60
2018-12-13T22:42:19.114Z,18.27
2018-12-13T22:45:23.330Z,19.03
2018-12-13T22:48:27.367Z,18.20
2018-12-13T22:51:31.483Z,17.00
2018-12-13T22:54:35.510Z,22.15
2018-12-13T22:57:39.620Z,19.33
2018-12-13T23:00:43.908Z,16.87
2018-12-13T23:03:47.927Z,16.77
2018-12-13T23:06:51.952Z,16.40
2018-12-13T23:09:55.972Z,16.10
2018-12-13T23:13:00.095Z,17.70
2018-12-13T23:16:04.306Z,16.83
2018-12-13T23:19:08.432Z,17.67
2018-12-13T23:22:12.547Z,17.57
2018-12-13T23:25:16.568Z,18.30
2018-12-13T23:28:20.600Z,16.77
2018-12-13T23:31:24.721Z,17.00
2018-12-13T23:34:28.727Z,17.47
2018-12-13T23:37:32.759Z,16.57
2018-12-13T23:40:36.772Z,18.20
2018-12-13T23:43:40.794Z,17.40
2018-12-13T23:46:44.827Z,18.03
2018-12-13T23:49:48.838Z,18.10
2018-12-13T23:52:52.855Z,19.67
2018-12-13T23:55:57.052Z,17.87
2018-12-13T23:59:01.431Z,18.80
